Time;durP1;ratioP1;P1;durP2;ratioP2;P2;SDS_P1;SDS_P2;PMS_P1;PMS_P2;Temp;Humidity;BMP_temperature;BMP_pressure;BME280_temperature;BME280_humidity;BME280_pressure;Samples;Min_cycle;Max_cycle;Signal;HPM_P1;HPM_P2
2023/03/15 00:02:12;;;;;;;6.63;1.20;;;;;;;5.24;58.06;100573.25;6174865;22;96906;-51
2023/03/15 00:04:37;;;;;;;2.83;0.70;;;;;;;5.24;57.81;100575.25;6149022;22;97035;-51
2023/03/15 00:07:02;;;;;;;6.37;1.00;;;;;;;5.24;57.99;100575.25;6174031;22;106005;-51
2023/03/15 00:09:29;;;;;;;3.23;0.80;;;;;;;5.23;57.69;100584.63;6175149;22;96652;-51
2023/03/15 00:11:54;;;;;;;7.27;0.90;;;;;;;5.23;57.49;100581.91;6174991;22;96974;-50
2023/03/15 00:14:20;;;;;;;4.20;0.70;;;;;;;5.21;57.62;100578.88;6175378;22;97429;-49
2023/03/15 00:16:46;;;;;;;5.23;1.20;;;;;;;5.21;58.11;100589.78;6175242;22;97942;-50
2023/03/15 00:19:12;;;;;;;3.23;0.83;;;;;;;5.19;57.83;100590.25;6174281;22;97140;-50
2023/03/15 00:21:39;;;;;;;3.50;0.73;;;;;;;5.19;57.79;100592.97;6175755;22;97335;-51
2023/03/15 00:24:04;;;;;;;5.30;1.23;;;;;;;5.14;57.73;100588.13;6175451;22;97062;-51
2023/03/15 00:26:30;;;;;;;6.83;1.07;;;;;;;5.08;57.85;100591.91;6174400;22;97217;-50
2023/03/15 00:28:55;;;;;;;1.80;0.73;;;;;;;5.12;57.88;100597.97;6174776;22;96790;-50
2023/03/15 00:31:23;;;;;;;8.20;0.83;;;;;;;5.11;57.59;100599.19;6174940;22;100740;-50
2023/03/15 00:33:52;;;;;;;2.43;0.60;;;;;;;5.08;58.01;100600.09;6175383;22;96505;-50
2023/03/15 00:36:18;;;;;;;2.23;0.83;;;;;;;5.05;58.02;100599.03;6173861;22;96684;-50
2023/03/15 00:38:43;;;;;;;8.00;0.97;;;;;;;5.06;58.19;100610.69;6174081;22;96666;-50
2023/03/15 00:41:11;;;;;;;3.87;1.07;;;;;;;5.05;58.17;100614.63;6174788;22;97715;-51
2023/03/15 00:43:36;;;;;;;7.33;1.03;;;;;;;5.05;58.23;100615.41;6175410;22;97076;-51
2023/03/15 00:46:03;;;;;;;3.67;1.20;;;;;;;5.05;58.21;100615.41;6174623;22;96888;-51
2023/03/15 00:48:29;;;;;;;3.77;1.23;;;;;;;5.07;58.16;100617.66;6146617;22;99037;-50
2023/03/15 00:51:12;;;;;;;2.13;0.90;;;;;;;5.13;58.18;100615.84;6175532;22;97088;-51
2023/03/15 00:53:40;;;;;;;5.13;0.73;;;;;;;5.15;57.96;100624.34;6176022;22;96893;-52
2023/03/15 00:56:08;;;;;;;2.80;0.83;;;;;;;5.16;58.20;100621.16;6175202;22;98224;-51
2023/03/15 00:58:34;;;;;;;1.70;0.83;;;;;;;5.16;57.98;100620.38;6173666;22;96869;-52
2023/03/15 01:01:03;;;;;;;2.43;0.80;;;;;;;5.18;58.02;100628.88;6174451;22;96697;-50
2023/03/15 01:03:28;;;;;;;1.33;0.60;;;;;;;5.15;57.85;100618.88;6175030;22;96713;-51
2023/03/15 01:05:54;;;;;;;1.70;0.93;;;;;;;5.13;58.16;100615.84;6174500;22;97222;-50
2023/03/15 01:08:19;;;;;;;6.63;1.00;;;;;;;5.13;57.81;100624.03;6173295;22;111534;-51
2023/03/15 01:10:44;;;;;;;2.30;0.60;;;;;;;5.14;57.85;100623.56;6174619;22;96983;-51
2023/03/15 01:13:09;;;;;;;2.93;0.93;;;;;;;5.15;57.94;100624.34;6174507;22;99578;-50
2023/03/15 01:15:35;;;;;;;2.47;0.83;;;;;;;5.18;57.89;100626.91;6174900;22;97946;-50
2023/03/15 01:18:00;;;;;;;4.10;0.90;;;;;;;5.23;58.27;100631.00;6174405;22;104674;-50
2023/03/15 01:20:25;;;;;;;2.25;0.70;;;;;;;5.26;58.28;100628.09;6174248;22;96798;-51
2023/03/15 01:22:51;;;;;;;2.33;0.70;;;;;;;5.30;57.97;100630.69;6175146;22;96739;-51
2023/03/15 01:25:17;;;;;;;4.03;1.10;;;;;;;5.36;57.94;100634.31;6174197;22;97433;-50
2023/03/15 01:27:42;;;;;;;7.00;0.60;;;;;;;5.38;58.10;100631.88;6174584;22;97992;-51
2023/03/15 01:30:08;;;;;;;1.03;0.77;;;;;;;5.42;57.97;100635.22;6174898;22;96629;-52
2023/03/15 01:32:33;;;;;;;3.43;1.27;;;;;;;5.45;58.25;100634.31;6174924;22;96733;-51
2023/03/15 01:34:58;;;;;;;1.93;1.23;;;;;;;5.49;57.67;100639.59;6174585;22;97755;-51
2023/03/15 01:37:25;;;;;;;1.83;0.80;;;;;;;5.53;57.74;100635.50;6173700;22;103946;-51
2023/03/15 01:39:50;;;;;;;3.00;1.00;;;;;;;5.56;57.78;100637.31;6175042;22;96685;-51
2023/03/15 01:42:16;;;;;;;6.30;1.43;;;;;;;5.58;57.65;100643.06;6175002;22;96813;-52
2023/03/15 01:45:29;;;;;;;5.70;1.17;;;;;;;5.57;57.58;100641.53;6174808;22;97185;-50
2023/03/15 01:47:55;;;;;;;0.97;0.60;;;;;;;5.55;58.04;100643.97;6059044;22;97444;-51
2023/03/15 01:50:24;;;;;;;2.80;1.07;;;;;;;5.56;57.47;100647.47;6173858;22;97041;-50
2023/03/15 01:52:49;;;;;;;2.93;0.77;;;;;;;5.58;57.81;100648.53;6174887;22;97217;-50
2023/03/15 01:55:19;;;;;;;3.50;0.80;;;;;;;5.55;57.97;100652.16;6174221;22;97339;-50
2023/03/15 01:57:54;;;;;;;2.47;0.83;;;;;;;5.55;57.73;100654.91;6173579;22;97096;-52
2023/03/15 02:00:20;;;;;;;4.90;0.80;;;;;;;5.56;57.57;100653.69;6174596;22;96557;-50
2023/03/15 02:02:51;;;;;;;7.00;0.80;;;;;;;5.53;57.67;100665.50;6174663;22;98714;-50
2023/03/15 02:05:24;;;;;;;2.80;0.73;;;;;;;5.54;57.30;100671.72;6173466;22;97529;-50
2023/03/15 02:07:53;;;;;;;2.90;0.90;;;;;;;5.53;57.96;100672.94;6174264;22;97095;-50
2023/03/15 02:10:52;;;;;;;3.53;0.70;;;;;;;5.48;57.69;100674.31;6173734;22;96658;-50
2023/03/15 02:13:23;;;;;;;6.03;1.20;;;;;;;5.48;57.76;100668.09;6092373;22;96898;-51
2023/03/15 02:15:52;;;;;;;3.00;0.90;;;;;;;5.47;57.66;100667.34;6173801;22;97308;-51
2023/03/15 02:18:18;;;;;;;10.37;2.10;;;;;;;5.48;57.79;100660.69;6173059;22;97685;-51
2023/03/15 02:21:06;;;;;;;4.20;0.90;;;;;;;5.48;57.65;100662.66;6174141;22;97137;-50
2023/03/15 02:23:32;;;;;;;4.93;1.30;;;;;;;5.50;57.56;100665.69;6154143;22;97265;-52
2023/03/15 02:26:01;;;;;;;2.33;0.80;;;;;;;5.46;57.72;100671.28;6174089;22;97347;-51
2023/03/15 02:28:27;;;;;;;2.70;0.90;;;;;;;5.42;57.39;100667.94;6172202;22;97191;-51
2023/03/15 02:30:52;;;;;;;2.90;1.07;;;;;;;5.42;57.55;100667.94;6173829;22;97044;-50
2023/03/15 02:33:27;;;;;;;6.70;1.13;;;;;;;5.41;57.42;100674.63;6174110;22;96967;-51
2023/03/15 02:35:54;;;;;;;6.30;0.90;;;;;;;5.39;57.77;100676.28;6174093;22;97862;-50
2023/03/15 02:38:21;;;;;;;1.37;0.80;;;;;;;5.39;57.76;100679.78;6173104;22;96759;-50
2023/03/15 02:40:47;;;;;;;1.93;0.87;;;;;;;5.39;57.52;100677.06;6173814;22;97097;-50
2023/03/15 02:43:16;;;;;;;5.30;1.00;;;;;;;5.38;57.63;100680.97;6174792;22;96582;-50
2023/03/15 02:45:43;;;;;;;4.60;1.17;;;;;;;5.39;58.15;100687.19;6174080;22;97350;-50
2023/03/15 02:48:10;;;;;;;1.73;0.70;;;;;;;5.41;57.78;100685.53;6173519;22;97176;-50
2023/03/15 02:50:35;;;;;;;5.00;0.90;;;;;;;5.44;57.65;100683.88;6172868;22;96650;-50
2023/03/15 02:53:01;;;;;;;3.63;1.07;;;;;;;5.45;57.67;100691.59;6175127;22;97569;-50
2023/03/15 02:55:27;;;;;;;9.03;1.60;;;;;;;5.47;57.60;100693.84;6173819;22;96925;-50
2023/03/15 02:57:52;;;;;;;2.10;0.90;;;;;;;5.48;57.77;100698.88;6173945;22;97802;-50
2023/03/15 03:00:18;;;;;;;3.90;0.80;;;;;;;5.51;57.68;100695.22;6173945;22;96913;-50
2023/03/15 03:02:45;;;;;;;2.43;0.83;;;;;;;5.51;57.72;100697.94;6174834;22;97398;-50
2023/03/15 03:05:13;;;;;;;4.63;1.20;;;;;;;5.48;57.63;100701.59;6173466;22;97392;-50
2023/03/15 03:07:38;;;;;;;3.03;0.80;;;;;;;5.46;57.93;100706.75;6173248;22;97417;-50
2023/03/15 03:10:05;;;;;;;3.17;0.70;;;;;;;5.45;57.49;100718.88;6174121;22;97005;-51
2023/03/15 03:12:31;;;;;;;1.47;0.83;;;;;;;5.45;57.85;100718.88;6176261;22;96898;-50
2023/03/15 03:14:56;;;;;;;1.93;0.57;;;;;;;5.44;57.62;100717.34;6175072;22;97600;-50
2023/03/15 03:17:22;;;;;;;4.40;1.03;;;;;;;5.45;57.89;100715.38;6173893;22;105480;-50
2023/03/15 03:19:47;;;;;;;3.70;1.17;;;;;;;5.47;57.73;100723.88;6175049;22;96748;-50
2023/03/15 03:22:13;;;;;;;8.60;1.40;;;;;;;5.51;57.79;100727.19;6175920;22;97050;-50
2023/03/15 03:24:38;;;;;;;3.90;1.10;;;;;;;5.51;57.75;100733.41;6175183;22;97622;-50
2023/03/15 03:27:04;;;;;;;5.07;1.20;;;;;;;5.52;57.91;100734.94;6174540;22;96846;-50
2023/03/15 03:29:30;;;;;;;6.40;1.30;;;;;;;5.55;57.90;100741.47;6174516;22;97149;-50
2023/03/15 03:31:55;;;;;;;3.47;0.90;;;;;;;5.57;58.22;100747.22;6175479;22;96702;-50
2023/03/15 03:34:20;;;;;;;1.60;0.90;;;;;;;5.61;58.06;100754.06;6174858;22;97114;-51
2023/03/15 03:36:47;;;;;;;7.63;1.30;;;;;;;5.67;57.72;100756.91;6174939;22;97056;-50
2023/03/15 03:39:13;;;;;;;2.53;1.00;;;;;;;5.70;58.07;100759.47;6174673;22;97007;-51
2023/03/15 03:41:38;;;;;;;2.00;1.13;;;;;;;5.72;57.72;100761.78;6174977;22;97076;-50
2023/03/15 03:44:04;;;;;;;2.97;0.93;;;;;;;5.74;57.88;100762.84;6175002;22;97181;-51
2023/03/15 03:46:29;;;;;;;1.70;1.13;;;;;;;5.74;58.05;100768.31;6175109;22;97027;-51
2023/03/15 03:48:54;;;;;;;1.97;1.30;;;;;;;5.75;58.26;100775.25;6174064;22;96719;-50
2023/03/15 03:51:20;;;;;;;2.70;1.13;;;;;;;5.75;58.00;100785.41;6175027;22;96714;-51
2023/03/15 03:53:45;;;;;;;5.37;1.17;;;;;;;5.74;58.27;100784.69;6174393;22;98408;-50
2023/03/15 03:56:11;;;;;;;2.50;1.17;;;;;;;5.77;58.28;100796.63;6174560;22;97520;-50
2023/03/15 03:58:36;;;;;;;4.87;1.30;;;;;;;5.78;58.30;100798.16;6174189;22;97036;-50
2023/03/15 04:01:02;;;;;;;5.80;1.77;;;;;;;5.77;58.46;100802.84;6174012;22;101869;-50
2023/03/15 04:03:28;;;;;;;4.50;1.57;;;;;;;5.79;58.65;100814.06;6174877;22;97127;-50
2023/03/15 04:05:55;;;;;;;2.50;1.40;;;;;;;5.80;58.55;100809.38;6174484;22;97213;-50
2023/03/15 04:08:21;;;;;;;7.37;1.77;;;;;;;5.81;58.64;100817.09;6174322;22;97149;-50
2023/03/15 04:10:53;;;;;;;4.43;1.37;;;;;;;5.84;58.65;100824.44;6175127;22;96768;-51
2023/03/15 04:13:20;;;;;;;3.10;1.63;;;;;;;5.87;58.81;100825.50;6174264;22;97213;-50
2023/03/15 04:15:46;;;;;;;2.70;1.50;;;;;;;5.88;58.82;100827.75;6174584;22;96979;-50
2023/03/15 04:18:12;;;;;;;2.20;1.20;;;;;;;5.92;58.83;100835.78;6173760;22;96681;-50
2023/03/15 04:20:37;;;;;;;4.40;1.70;;;;;;;5.93;58.60;100834.59;6174869;22;97250;-50
2023/03/15 04:23:02;;;;;;;2.30;1.53;;;;;;;5.91;58.77;100840.50;6171635;22;103605;-50
2023/03/15 04:25:28;;;;;;;2.03;1.33;;;;;;;5.88;58.90;100846.88;6174118;22;97184;-50
2023/03/15 04:28:01;;;;;;;2.90;1.50;;;;;;;5.95;58.52;100848.53;6174088;22;97494;-50
2023/03/15 04:30:28;;;;;;;2.40;1.60;;;;;;;5.95;58.66;100852.03;6174793;22;96640;-50
2023/03/15 04:33:02;;;;;;;5.30;2.37;;;;;;;5.96;58.75;100855.53;6174925;22;97064;-50
2023/03/15 04:35:29;;;;;;;3.13;1.53;;;;;;;5.98;58.72;100858.56;6174474;22;97110;-50
2023/03/15 04:37:55;;;;;;;6.03;1.70;;;;;;;5.96;58.71;100861.72;6173880;22;96623;-50
2023/03/15 04:40:22;;;;;;;3.43;1.40;;;;;;;5.90;58.99;100862.78;6173336;22;96872;-50
2023/03/15 04:42:54;;;;;;;3.50;1.73;;;;;;;5.86;59.13;100868.41;6174323;22;97631;-50
2023/03/15 04:45:23;;;;;;;4.60;1.90;;;;;;;5.88;59.10;100873.41;6174465;22;97101;-51
2023/03/15 04:47:49;;;;;;;3.60;2.20;;;;;;;5.87;59.01;100875.41;6174153;22;96585;-50
2023/03/15 04:50:15;;;;;;;4.60;2.10;;;;;;;5.90;59.25;100884.63;6173550;22;96848;-51
2023/03/15 04:52:41;;;;;;;2.67;2.17;;;;;;;5.91;59.00;100877.97;6174185;22;97619;-50
2023/03/15 04:55:07;;;;;;;2.50;1.70;;;;;;;5.90;58.94;100882.66;6174448;22;97152;-50
2023/03/15 04:57:32;;;;;;;3.70;1.97;;;;;;;5.94;59.16;100885.25;6173977;22;97556;-50
2023/03/15 04:59:58;;;;;;;4.53;1.80;;;;;;;5.97;59.01;100885.09;6174011;22;97220;-50
2023/03/15 05:02:23;;;;;;;3.43;1.83;;;;;;;6.00;59.01;100895.13;6170867;22;108583;-50
2023/03/15 05:04:48;;;;;;;3.63;2.30;;;;;;;6.01;59.15;100899.34;6173518;22;96594;-50
2023/03/15 05:07:14;;;;;;;9.47;2.30;;;;;;;6.02;59.22;100903.63;6173588;22;96864;-50
2023/03/15 05:09:39;;;;;;;2.13;1.93;;;;;;;6.04;59.12;100906.66;6174154;22;96946;-50
2023/03/15 05:12:05;;;;;;;6.03;2.10;;;;;;;6.08;59.21;100911.97;6174317;22;97261;-50
2023/03/15 05:14:31;;;;;;;3.87;2.10;;;;;;;6.10;59.16;100936.84;6173838;22;97897;-50
2023/03/15 05:16:58;;;;;;;3.20;2.20;;;;;;;6.12;59.06;100922.72;6173781;22;96572;-50
2023/03/15 05:19:27;;;;;;;4.60;2.03;;;;;;;6.13;58.99;100921.53;6173756;22;96744;-51
2023/03/15 05:21:53;;;;;;;3.50;2.13;;;;;;;6.12;59.39;100928.19;6146828;22;96680;-50
2023/03/15 05:24:19;;;;;;;2.60;2.10;;;;;;;6.13;59.12;100941.41;6172965;22;97375;-50
2023/03/15 05:26:45;;;;;;;3.70;2.07;;;;;;;6.14;59.23;100936.72;6147379;22;96598;-51
2023/03/15 05:29:14;;;;;;;6.30;2.13;;;;;;;6.13;59.26;100938.66;6173279;22;97217;-50
2023/03/15 05:31:39;;;;;;;3.40;1.97;;;;;;;6.12;59.40;100939.09;6172256;22;97016;-50
2023/03/15 05:34:05;;;;;;;4.10;2.30;;;;;;;6.08;59.34;100939.25;6146442;22;98090;-50
2023/03/15 05:36:32;;;;;;;2.30;2.10;;;;;;;6.01;59.36;100943.06;6174241;22;96649;-51
2023/03/15 05:38:57;;;;;;;6.40;2.43;;;;;;;5.95;59.09;100947.59;6173524;22;97083;-50
2023/03/15 05:41:23;;;;;;;2.10;1.90;;;;;;;5.94;59.10;100951.53;6174490;22;97211;-50
2023/03/15 05:43:49;;;;;;;2.77;2.00;;;;;;;5.90;59.21;100958.34;6173806;22;97134;-50
2023/03/15 05:46:14;;;;;;;4.53;2.37;;;;;;;5.84;59.49;100963.66;6174606;22;96639;-50
2023/03/15 05:48:40;;;;;;;2.53;1.93;;;;;;;5.81;59.29;100978.16;6174291;22;96889;-51
2023/03/15 05:51:05;;;;;;;2.83;2.47;;;;;;;5.79;59.39;100975.13;6173651;22;97198;-50
2023/03/15 05:53:30;;;;;;;2.93;2.10;;;;;;;5.78;59.49;100987.28;6174380;22;97054;-50
2023/03/15 05:55:56;;;;;;;4.13;2.03;;;;;;;5.75;59.32;100990.91;6173298;22;96966;-50
2023/03/15 05:58:22;;;;;;;3.83;2.17;;;;;;;5.71;59.18;100986.78;6173638;22;96999;-50
2023/03/15 06:00:48;;;;;;;5.83;1.90;;;;;;;5.65;59.52;100994.06;6173010;22;96633;-50
2023/03/15 06:03:15;;;;;;;3.77;2.13;;;;;;;5.63;59.80;100996.47;6174116;22;97636;-51
2023/03/15 06:05:40;;;;;;;2.40;2.20;;;;;;;5.61;59.44;101004.34;6173843;22;96770;-50
2023/03/15 06:08:06;;;;;;;2.50;2.03;;;;;;;5.60;59.55;101011.78;6173887;22;96628;-50
2023/03/15 06:10:32;;;;;;;3.33;2.13;;;;;;;5.57;59.48;101012.66;6173209;22;97063;-50
2023/03/15 06:12:58;;;;;;;3.33;2.10;;;;;;;5.54;59.50;101021.75;6174302;22;97113;-50
2023/03/15 06:15:23;;;;;;;4.20;2.47;;;;;;;5.52;59.64;101018.72;6174534;22;96950;-50
2023/03/15 06:17:49;;;;;;;1.77;1.60;;;;;;;5.55;59.78;101025.25;6173341;22;97950;-50
2023/03/15 06:20:14;;;;;;;4.40;2.47;;;;;;;5.55;59.67;101025.25;6173029;22;96662;-50
2023/03/15 06:22:40;;;;;;;3.07;2.10;;;;;;;5.57;59.23;101031.75;6173322;22;97113;-50
2023/03/15 06:25:06;;;;;;;4.03;1.90;;;;;;;5.59;59.64;101040.25;6174112;22;97305;-50
2023/03/15 06:27:31;;;;;;;5.10;2.03;;;;;;;5.64;59.52;101036.94;6173429;22;97094;-50
2023/03/15 06:29:57;;;;;;;5.73;2.87;;;;;;;5.69;59.66;101047.28;6173473;22;97465;-50
2023/03/15 06:32:22;;;;;;;2.50;2.27;;;;;;;5.74;59.73;101062.34;6174235;22;97019;-50
2023/03/15 06:34:48;;;;;;;4.13;2.33;;;;;;;5.78;59.85;101058.25;6173920;22;96699;-50
2023/03/15 06:37:14;;;;;;;3.43;2.30;;;;;;;5.83;59.77;101063.09;6173784;22;97316;-50
2023/03/15 06:39:40;;;;;;;3.33;2.33;;;;;;;5.87;59.89;101063.78;6173035;22;97261;-50
2023/03/15 06:42:07;;;;;;;3.60;2.70;;;;;;;5.87;59.95;101063.78;6174431;22;97811;-50
2023/03/15 06:44:35;;;;;;;3.80;2.30;;;;;;;5.86;60.01;101069.69;6172704;22;96589;-50
2023/03/15 06:47:01;;;;;;;4.40;2.77;;;;;;;5.87;60.04;101071.97;6175035;22;96812;-51
2023/03/15 06:49:27;;;;;;;2.80;2.17;;;;;;;5.88;60.02;101072.72;6174376;22;97035;-50
2023/03/15 06:51:52;;;;;;;2.47;2.30;;;;;;;5.89;59.87;101075.00;6174809;22;97392;-50
2023/03/15 06:54:17;;;;;;;4.07;2.67;;;;;;;5.92;60.05;101085.03;6175368;22;97186;-50
2023/03/15 06:56:43;;;;;;;2.40;2.20;;;;;;;5.96;59.67;101084.91;6172903;22;97528;-50
2023/03/15 06:59:08;;;;;;;5.47;2.80;;;;;;;5.98;59.89;101094.13;6174623;22;97185;-51
2023/03/15 07:01:34;;;;;;;2.50;2.30;;;;;;;5.99;59.85;101100.38;6175183;22;97222;-50
2023/03/15 07:03:59;;;;;;;2.60;2.23;;;;;;;6.05;60.18;101098.56;6175328;22;96610;-51
2023/03/15 07:06:27;;;;;;;3.37;3.07;;;;;;;6.10;59.93;101108.91;6174373;22;97237;-50
2023/03/15 07:08:52;;;;;;;2.70;2.50;;;;;;;6.12;60.16;101116.66;6172998;22;97879;-50
2023/03/15 07:11:17;;;;;;;6.27;3.57;;;;;;;6.16;60.06;101123.50;6174963;22;96683;-51
2023/03/15 07:13:43;;;;;;;4.40;2.87;;;;;;;6.18;59.85;101132.00;6174647;22;96487;-50
2023/03/15 07:16:08;;;;;;;2.70;2.50;;;;;;;6.20;60.23;101129.59;6174973;22;96638;-50
2023/03/15 07:18:33;;;;;;;2.53;2.33;;;;;;;6.25;60.19;101130.97;6173313;22;104804;-50
2023/03/15 07:21:01;;;;;;;2.47;2.23;;;;;;;6.30;60.17;101144.03;6172789;22;97747;-50
2023/03/15 07:23:27;;;;;;;3.97;2.73;;;;;;;6.33;60.27;101140.41;6175171;22;97009;-50
2023/03/15 07:25:53;;;;;;;5.60;2.63;;;;;;;6.34;60.25;101139.94;6175861;22;97101;-51
2023/03/15 07:28:20;;;;;;;3.27;2.20;;;;;;;6.38;60.17;101139.81;6173895;22;97912;-50
2023/03/15 07:30:52;;;;;;;3.70;2.50;;;;;;;6.40;59.92;101143.59;6174809;22;97705;-50
2023/03/15 07:33:17;;;;;;;2.63;2.27;;;;;;;6.44;60.19;101146.22;6174324;22;96927;-51
2023/03/15 07:35:42;;;;;;;6.83;2.80;;;;;;;6.51;60.45;101154.13;6174341;22;96887;-50
2023/03/15 07:38:08;;;;;;;6.10;2.83;;;;;;;6.58;60.28;101156.56;6174176;22;97598;-50
2023/03/15 07:40:33;;;;;;;3.20;2.70;;;;;;;6.61;60.16;101158.41;6174333;22;105471;-50
2023/03/15 07:42:58;;;;;;;5.33;1.97;;;;;;;6.66;60.16;101157.81;6174202;22;104714;-50
2023/03/15 07:45:24;;;;;;;3.47;2.37;;;;;;;6.71;60.29;101154.47;6174638;22;96817;-50
2023/03/15 07:47:49;;;;;;;3.60;2.53;;;;;;;6.77;60.20;101171.81;6172976;22;97216;-50
2023/03/15 07:50:16;;;;;;;2.30;1.80;;;;;;;6.84;60.24;101181.69;6173427;22;97336;-51
2023/03/15 07:52:41;;;;;;;3.20;2.07;;;;;;;6.82;60.12;101176.66;6174622;22;96597;-50
2023/03/15 07:55:07;;;;;;;4.40;2.00;;;;;;;6.87;60.25;101189.75;6174566;22;96979;-50
2023/03/15 07:57:33;;;;;;;2.70;2.10;;;;;;;6.93;60.13;101212.53;6171290;22;97879;-50
2023/03/15 07:59:58;;;;;;;2.37;2.20;;;;;;;6.98;60.13;101192.03;6174351;22;97557;-51
2023/03/15 08:02:24;;;;;;;4.20;1.87;;;;;;;7.01;60.19;101194.63;6174741;22;96558;-51
2023/03/15 08:04:50;;;;;;;2.87;2.07;;;;;;;7.10;59.90;101222.00;6147413;22;96948;-50
2023/03/15 08:07:15;;;;;;;2.10;1.70;;;;;;;7.14;60.08;101206.19;6174501;22;97618;-51
2023/03/15 08:09:41;;;;;;;2.03;1.60;;;;;;;7.20;59.91;101215.34;6174034;22;97006;-50
2023/03/15 08:12:06;;;;;;;3.80;2.10;;;;;;;7.23;59.77;101217.13;6174764;22;96882;-51
2023/03/15 08:14:32;;;;;;;4.90;1.80;;;;;;;7.38;60.06;101215.31;6175591;22;96944;-51
2023/03/15 08:16:57;;;;;;;2.37;1.50;;;;;;;7.53;60.05;101213.47;6172812;22;96620;-50
2023/03/15 08:19:23;;;;;;;3.87;2.00;;;;;;;7.77;60.05;101221.84;6174487;22;97061;-51
2023/03/15 08:21:48;;;;;;;2.10;1.90;;;;;;;7.99;59.69;101222.44;6173935;22;97109;-51
2023/03/15 08:24:14;;;;;;;2.40;1.13;;;;;;;8.16;59.50;101218.13;6175055;22;96978;-50
2023/03/15 08:26:42;;;;;;;1.83;1.57;;;;;;;8.22;59.14;101219.00;6173482;22;98408;-50
2023/03/15 08:29:07;;;;;;;1.80;1.10;;;;;;;8.20;58.87;101215.97;6173725;22;97629;-50
2023/03/15 08:31:33;;;;;;;1.37;1.10;;;;;;;8.23;58.72;101225.25;6174677;22;96662;-51
2023/03/15 08:33:58;;;;;;;4.00;1.53;;;;;;;8.22;58.75;101223.72;6174672;22;97153;-51
2023/03/15 08:36:23;;;;;;;4.83;1.53;;;;;;;8.22;58.86;101229.19;6173670;22;106997;-51
2023/03/15 08:38:48;;;;;;;2.40;1.13;;;;;;;8.29;59.06;101224.19;6174307;22;103863;-50
2023/03/15 08:41:14;;;;;;;3.10;1.30;;;;;;;8.38;58.59;101237.09;6174519;22;96882;-50
2023/03/15 08:43:39;;;;;;;1.07;0.97;;;;;;;8.37;58.61;101248.50;6174442;22;96899;-51
2023/03/15 08:46:05;;;;;;;5.10;1.17;;;;;;;8.45;58.73;101246.97;6174165;22;96949;-51
2023/03/15 08:48:30;;;;;;;3.80;1.03;;;;;;;8.58;58.72;101251.03;6173838;22;97129;-50
2023/03/15 08:51:01;;;;;;;2.10;1.17;;;;;;;8.67;58.34;101261.97;6174764;22;97253;-50
2023/03/15 08:53:27;;;;;;;2.93;0.83;;;;;;;8.83;58.62;101267.06;6175544;22;97310;-51
2023/03/15 08:55:52;;;;;;;1.60;0.83;;;;;;;8.94;58.18;101263.81;6174082;22;96598;-51
2023/03/15 08:58:17;;;;;;;3.83;1.17;;;;;;;9.01;57.90;101266.97;6173669;22;96913;-51
2023/03/15 09:00:43;;;;;;;1.10;0.80;;;;;;;9.20;58.35;101272.34;6174178;22;97044;-51
2023/03/15 09:03:08;;;;;;;1.23;0.80;;;;;;;9.47;58.11;101274.91;6174335;22;102309;-50
2023/03/15 09:05:35;;;;;;;3.73;0.77;;;;;;;9.67;57.61;101275.84;6174299;22;96692;-51
2023/03/15 09:08:00;;;;;;;3.13;0.93;;;;;;;9.69;57.12;101276.13;6172931;22;96839;-51
2023/03/15 09:10:26;;;;;;;0.83;0.83;;;;;;;9.56;57.03;101278.38;6172872;22;96853;-50
2023/03/15 09:12:52;;;;;;;3.70;0.83;;;;;;;9.58;57.14;101275.91;6174604;22;96392;-51
2023/03/15 09:15:18;;;;;;;1.63;0.90;;;;;;;9.76;57.13;101280.50;6174696;22;96923;-51
2023/03/15 09:17:43;;;;;;;3.20;0.67;;;;;;;9.92;56.85;101279.25;6172238;22;97230;-51
2023/03/15 09:20:15;;;;;;;1.10;0.63;;;;;;;9.99;56.57;101287.13;6174572;22;97118;-50
2023/03/15 09:22:48;;;;;;;2.00;0.80;;;;;;;10.10;56.46;101292.84;6174457;22;96963;-50
2023/03/15 09:25:13;;;;;;;3.20;0.73;;;;;;;10.19;56.21;101288.06;6174092;22;97799;-50
2023/03/15 09:27:39;;;;;;;2.77;0.80;;;;;;;10.26;56.21;101295.94;6174100;22;97139;-50
2023/03/15 09:30:07;;;;;;;3.53;0.77;;;;;;;10.33;56.12;101306.53;6174343;22;97273;-50
2023/03/15 09:32:35;;;;;;;2.93;0.97;;;;;;;10.40;55.92;101299.88;6174805;22;97055;-51
2023/03/15 09:35:04;;;;;;;1.23;0.67;;;;;;;10.49;55.88;101303.31;6173355;22;96779;-50
2023/03/15 09:37:29;;;;;;;5.40;1.03;;;;;;;10.57;55.92;101305.69;6173975;22;96743;-51
2023/03/15 09:39:55;;;;;;;1.30;0.60;;;;;;;10.67;55.62;101307.06;6174065;22;96497;-51
2023/03/15 09:42:55;;;;;;;2.63;0.70;;;;;;;10.77;53.29;101306.50;6174328;22;97469;-51
2023/03/15 09:45:47;;;;;;;1.10;0.60;;;;;;;10.88;53.98;101309.41;6173017;22;97329;-50
2023/03/15 09:48:18;;;;;;;2.13;1.10;;;;;;;10.91;54.41;101304.94;6173338;22;97087;-50
2023/03/15 09:51:00;;;;;;;2.87;0.80;;;;;;;10.81;52.41;101312.56;6174388;22;97042;-50
2023/03/15 09:53:39;;;;;;;0.97;0.70;;;;;;;10.85;52.45;101306.88;6175095;22;96973;-51
2023/03/15 09:56:20;;;;;;;1.33;0.60;;;;;;;10.92;53.33;101317.50;6146640;22;100965;-51
2023/03/15 09:58:48;;;;;;;1.50;0.50;;;;;;;11.07;54.53;101312.69;6174181;22;97274;-51
2023/03/15 10:01:16;;;;;;;1.83;0.63;;;;;;;11.19;53.86;101306.09;6173897;22;96847;-50
2023/03/15 10:03:49;;;;;;;0.83;0.50;;;;;;;11.23;53.87;101314.91;6172807;22;96825;-50
2023/03/15 10:06:16;;;;;;;2.87;0.80;;;;;;;11.21;53.15;101309.13;6171603;22;96584;-50
2023/03/15 10:08:42;;;;;;;0.83;0.50;;;;;;;11.17;53.60;101303.06;6173040;22;97192;-50
2023/03/15 10:11:26;;;;;;;0.60;0.50;;;;;;;11.27;50.82;101312.72;6173964;22;97000;-51
2023/03/15 10:14:07;;;;;;;1.20;1.00;;;;;;;11.38;52.10;101312.84;6173782;22;96920;-51
2023/03/15 10:16:47;;;;;;;2.00;0.73;;;;;;;11.50;51.00;101306.25;6174168;22;96658;-51
2023/03/15 10:19:47;;;;;;;2.30;0.60;;;;;;;11.45;50.50;101314.44;6173751;22;97462;-50
2023/03/15 10:22:13;;;;;;;2.40;0.67;;;;;;;11.30;52.79;101317.25;6166461;22;96837;-50
2023/03/15 10:25:00;;;;;;;2.33;1.10;;;;;;;11.12;50.21;101325.78;6174493;22;97140;-51
2023/03/15 10:27:56;;;;;;;1.40;0.90;;;;;;;10.87;49.60;101334.66;6172971;22;97264;-50
2023/03/15 10:30:33;;;;;;;0.87;0.60;;;;;;;10.67;50.21;101329.84;6040636;22;97282;-50
2023/03/15 10:33:22;;;;;;;2.10;0.50;;;;;;;10.65;50.65;101326.06;6174026;22;96543;-50
2023/03/15 10:35:48;;;;;;;2.70;1.23;;;;;;;10.78;52.88;101324.53;6174327;22;96661;-50
2023/03/15 10:38:19;;;;;;;2.53;0.90;;;;;;;10.84;50.75;101330.09;6173277;22;97265;-50
2023/03/15 10:40:49;;;;;;;3.23;0.70;;;;;;;10.92;52.45;101342.25;6172180;22;96675;-50
2023/03/15 10:43:35;;;;;;;0.60;0.50;;;;;;;11.02;50.18;101338.91;6174135;22;96585;-51
2023/03/15 10:46:04;;;;;;;2.23;0.60;;;;;;;11.12;51.54;101334.78;6174485;22;96857;-51
2023/03/15 10:48:32;;;;;;;1.33;0.60;;;;;;;11.13;51.65;101333.56;6173059;22;97237;-50
2023/03/15 10:51:28;;;;;;;2.47;1.13;;;;;;;11.08;45.39;101336.22;6173535;22;97200;-51
2023/03/15 10:54:10;;;;;;;0.70;0.50;;;;;;;10.99;49.24;101336.34;6141825;22;96911;-50
2023/03/15 10:56:44;;;;;;;1.20;0.40;;;;;;;11.02;49.87;101352.69;6174338;22;97691;-50
2023/03/15 10:59:19;;;;;;;3.73;0.90;;;;;;;10.81;48.79;101344.84;6172635;22;97274;-50
2023/03/15 11:01:47;;;;;;;0.93;0.40;;;;;;;10.70;50.81;101344.66;6173329;22;97117;-49
2023/03/15 11:04:12;;;;;;;1.10;0.57;;;;;;;10.69;50.67;101343.91;6173711;22;96613;-50
2023/03/15 11:06:44;;;;;;;0.60;0.40;;;;;;;10.76;50.85;101343.53;6173643;22;97058;-51
2023/03/15 11:09:16;;;;;;;2.03;0.73;;;;;;;10.92;51.21;101336.75;6173334;22;96726;-50
2023/03/15 11:12:08;;;;;;;2.30;0.67;;;;;;;11.09;48.39;101343.28;6173807;22;97292;-50
2023/03/15 11:14:35;;;;;;;1.30;0.43;;;;;;;11.05;50.38;101343.44;6167306;22;97231;-51
2023/03/15 11:17:02;;;;;;;1.10;0.60;;;;;;;10.96;50.40;101346.34;6173528;22;97244;-50
2023/03/15 11:19:36;;;;;;;1.43;0.70;;;;;;;10.87;49.69;101346.44;6172770;22;97147;-50
2023/03/15 11:22:02;;;;;;;3.30;0.87;;;;;;;10.75;50.33;101352.22;6173457;22;96915;-50
2023/03/15 11:24:29;;;;;;;1.97;0.47;;;;;;;10.78;50.54;101354.03;6173374;22;97094;-50
2023/03/15 11:27:00;;;;;;;3.53;0.67;;;;;;;10.86;50.26;101357.91;6173533;22;96725;-50
2023/03/15 11:29:36;;;;;;;2.77;0.57;;;;;;;10.77;48.16;101367.03;6173180;22;97120;-50
2023/03/15 11:32:31;;;;;;;1.93;0.50;;;;;;;10.43;48.42;101376.72;6172473;22;97776;-50
2023/03/15 11:35:04;;;;;;;2.43;0.60;;;;;;;10.21;50.14;101384.56;6142110;22;97044;-50
2023/03/15 11:37:32;;;;;;;1.63;0.63;;;;;;;9.95;51.07;101388.28;6175190;22;96894;-51